Time;durP1;ratioP1;P1;durP2;ratioP2;P2;SDS_P1;SDS_P2;PMS_P1;PMS_P2;Temp;Humidity;BMP_temperature;BMP_pressure;BME280_temperature;BME280_humidity;BME280_pressure;Samples;Min_cycle;Max_cycle;Signal;HPM_P1;HPM_P2
2023/09/09 00:01:19;;;;;;;8.32;7.03;;;;;;;;;;5043721;28;20052;-82
2023/09/09 00:03:47;;;;;;;7.97;7.25;;;;;;;;;;5043180;28;20132;-82
2023/09/09 00:06:14;;;;;;;10.23;8.15;;;;;;;;;;5043850;28;20052;-82
2023/09/09 00:08:42;;;;;;;9.25;7.45;;;;;;;;;;5059784;28;20502;-82
2023/09/09 00:11:10;;;;;;;8.18;7.13;;;;;;;;;;5044277;28;20045;-82
2023/09/09 00:13:38;;;;;;;12.80;7.93;;;;;;;;;;5059414;28;20044;-82
2023/09/09 00:16:05;;;;;;;8.77;7.78;;;;;;;;;;5043824;28;20060;-82
2023/09/09 00:18:34;;;;;;;8.18;6.35;;;;;;;;;;5060434;28;20036;-82
2023/09/09 00:21:01;;;;;;;7.85;6.97;;;;;;;;;;5060031;28;20067;-82
2023/09/09 00:23:29;;;;;;;7.22;5.70;;;;;;;;;;5059248;28;20053;-82
2023/09/09 00:25:56;;;;;;;8.32;7.18;;;;;;;;;;5057959;28;20036;-82
2023/09/09 00:28:24;;;;;;;8.18;7.38;;;;;;;;;;5076307;28;20045;-82
2023/09/09 00:30:51;;;;;;;7.88;7.07;;;;;;;;;;5044486;28;20289;-82
2023/09/09 00:33:19;;;;;;;8.52;7.70;;;;;;;;;;5041454;28;20499;-82
2023/09/09 00:35:48;;;;;;;10.57;7.45;;;;;;;;;;5059726;28;20040;-82
2023/09/09 00:38:17;;;;;;;8.02;6.70;;;;;;;;;;5059974;28;20048;-82
2023/09/09 00:41:11;;;;;;;9.13;7.40;;;;;;;;;;5044153;28;20063;-82
2023/09/09 00:43:39;;;;;;;10.35;8.50;;;;;;;;;;5043421;28;20048;-82
2023/09/09 00:46:07;;;;;;;11.50;7.95;;;;;;;;;;5043101;28;20067;-82
2023/09/09 00:48:35;;;;;;;9.40;7.18;;;;;;;;;;5042525;28;20044;-82
2023/09/09 00:51:05;;;;;;;10.38;6.53;;;;;;;;;;5043586;28;20056;-82
2023/09/09 00:53:33;;;;;;;8.80;6.88;;;;;;;;;;5059544;28;20041;-82
2023/09/09 00:56:02;;;;;;;11.05;7.95;;;;;;;;;;5042044;28;20170;-82
2023/09/09 00:58:31;;;;;;;7.47;6.72;;;;;;;;;;5046907;28;20049;-82
2023/09/09 01:00:58;;;;;;;10.05;8.88;;;;;;;;;;5060482;28;20040;-82
2023/09/09 01:03:25;;;;;;;10.73;7.65;;;;;;;;;;5060254;28;20055;-82
2023/09/09 01:05:56;;;;;;;8.65;7.85;;;;;;;;;;5042138;28;20041;-82
2023/09/09 01:08:28;;;;;;;8.30;7.30;;;;;;;;;;5057060;28;20060;-82
2023/09/09 01:10:56;;;;;;;12.45;8.63;;;;;;;;;;5042003;28;20429;-82
2023/09/09 01:13:24;;;;;;;9.82;7.50;;;;;;;;;;5042508;28;20056;-82
2023/09/09 01:15:52;;;;;;;8.95;6.50;;;;;;;;;;5026323;28;20048;-82
2023/09/09 01:18:19;;;;;;;10.38;7.10;;;;;;;;;;5041246;28;20048;-82
2023/09/09 01:20:51;;;;;;;9.77;7.72;;;;;;;;;;5033172;28;20052;-82
2023/09/09 01:23:19;;;;;;;7.47;6.50;;;;;;;;;;5042691;28;20051;-82
2023/09/09 01:25:46;;;;;;;9.13;7.68;;;;;;;;;;5077504;28;20060;-82
2023/09/09 01:28:14;;;;;;;7.00;6.22;;;;;;;;;;5043098;28;20052;-82
2023/09/09 01:30:42;;;;;;;8.80;7.82;;;;;;;;;;5041754;28;20505;-82
2023/09/09 01:33:09;;;;;;;8.20;6.85;;;;;;;;;;5041899;28;20052;-82
2023/09/09 01:35:36;;;;;;;7.40;6.70;;;;;;;;;;5040521;28;20044;-82
2023/09/09 01:38:04;;;;;;;8.77;7.57;;;;;;;;;;5042552;28;20065;-82
2023/09/09 01:40:33;;;;;;;9.57;7.97;;;;;;;;;;5041127;28;20044;-82
2023/09/09 01:43:00;;;;;;;7.65;6.95;;;;;;;;;;5042600;28;20049;-82
2023/09/09 01:45:27;;;;;;;9.35;6.38;;;;;;;;;;5041013;28;20055;-82
2023/09/09 01:47:55;;;;;;;9.77;8.20;;;;;;;;;;5042912;28;20532;-82
2023/09/09 01:50:23;;;;;;;8.18;7.40;;;;;;;;;;5040832;28;20056;-82
2023/09/09 01:52:50;;;;;;;13.95;8.20;;;;;;;;;;5041388;28;20059;-82
2023/09/09 01:55:18;;;;;;;13.10;9.18;;;;;;;;;;5057932;28;20047;-82
2023/09/09 01:57:47;;;;;;;9.90;6.82;;;;;;;;;;5041960;28;20049;-82
2023/09/09 02:00:15;;;;;;;10.75;7.88;;;;;;;;;;5043275;28;20044;-82
2023/09/09 02:02:43;;;;;;;8.82;7.53;;;;;;;;;;5026785;28;20052;-82
2023/09/09 02:05:11;;;;;;;8.73;6.95;;;;;;;;;;5057521;28;20052;-82
2023/09/09 02:07:39;;;;;;;12.40;8.32;;;;;;;;;;5042676;28;20048;-82
2023/09/09 02:10:07;;;;;;;10.02;7.95;;;;;;;;;;5041109;28;20056;-82
2023/09/09 02:12:34;;;;;;;11.15;6.78;;;;;;;;;;5057103;28;20063;-82
2023/09/09 02:15:05;;;;;;;9.02;6.80;;;;;;;;;;5026024;28;20060;-82
2023/09/09 02:17:36;;;;;;;11.18;7.63;;;;;;;;;;5040754;28;20414;-82
2023/09/09 02:20:05;;;;;;;8.38;7.32;;;;;;;;;;5058842;28;20048;-82
2023/09/09 02:22:33;;;;;;;9.48;7.45;;;;;;;;;;5058318;28;20049;-82
2023/09/09 02:25:02;;;;;;;8.32;7.40;;;;;;;;;;5040668;28;20048;-82
2023/09/09 02:27:32;;;;;;;8.95;7.63;;;;;;;;;;5058762;28;20056;-81
2023/09/09 02:30:00;;;;;;;7.47;6.78;;;;;;;;;;5042383;28;20052;-81
2023/09/09 02:32:32;;;;;;;8.93;6.88;;;;;;;;;;5057388;28;20060;-82
2023/09/09 02:34:59;;;;;;;8.23;7.35;;;;;;;;;;5041429;28;20045;-82
2023/09/09 02:37:28;;;;;;;9.48;7.07;;;;;;;;;;5040980;28;20560;-82
2023/09/09 02:39:55;;;;;;;9.32;7.43;;;;;;;;;;5025703;28;20501;-83
2023/09/09 02:42:24;;;;;;;11.82;7.68;;;;;;;;;;5041444;28;20413;-82
2023/09/09 02:44:51;;;;;;;14.18;7.45;;;;;;;;;;5060631;28;20045;-82
2023/09/09 02:47:19;;;;;;;9.48;8.50;;;;;;;;;;5050903;28;20486;-82
2023/09/09 02:49:49;;;;;;;8.65;7.75;;;;;;;;;;5076126;28;20040;-82
2023/09/09 02:52:17;;;;;;;9.90;7.28;;;;;;;;;;5068369;28;20055;-82
2023/09/09 02:54:44;;;;;;;12.18;6.68;;;;;;;;;;5073288;28;20049;-82
2023/09/09 02:57:12;;;;;;;12.85;9.13;;;;;;;;;;5051913;28;20049;-82
2023/09/09 02:59:40;;;;;;;12.48;8.15;;;;;;;;;;5044955;28;20049;-82
2023/09/09 03:02:11;;;;;;;8.60;7.20;;;;;;;;;;5048335;28;20053;-82
2023/09/09 03:04:38;;;;;;;12.32;7.60;;;;;;;;;;5059681;28;20064;-82
2023/09/09 03:07:07;;;;;;;7.70;6.13;;;;;;;;;;5050088;28;20045;-82
2023/09/09 03:09:35;;;;;;;11.82;7.82;;;;;;;;;;5063051;28;20064;-83
2023/09/09 03:12:05;;;;;;;11.10;8.02;;;;;;;;;;5074278;28;20053;-83
2023/09/09 03:14:34;;;;;;;7.82;6.75;;;;;;;;;;5055665;28;20056;-82
2023/09/09 03:17:01;;;;;;;8.57;7.38;;;;;;;;;;5078025;28;20477;-82
2023/09/09 03:19:31;;;;;;;8.20;6.05;;;;;;;;;;5052841;28;20048;-82
2023/09/09 03:21:58;;;;;;;8.38;5.72;;;;;;;;;;5068279;28;20047;-82
2023/09/09 03:24:27;;;;;;;8.68;7.78;;;;;;;;;;5070527;28;20056;-82
2023/09/09 03:26:56;;;;;;;11.73;8.18;;;;;;;;;;5077751;28;20044;-82
2023/09/09 03:29:24;;;;;;;8.05;6.40;;;;;;;;;;5075132;28;20478;-82
2023/09/09 03:31:52;;;;;;;8.40;7.10;;;;;;;;;;5053776;28;20509;-82
2023/09/09 03:34:19;;;;;;;9.88;7.60;;;;;;;;;;5050654;28;20047;-82
2023/09/09 03:36:50;;;;;;;10.60;6.00;;;;;;;;;;5057454;28;20521;-82
2023/09/09 03:39:18;;;;;;;9.90;7.93;;;;;;;;;;5054498;28;20053;-82
2023/09/09 03:41:46;;;;;;;12.90;7.32;;;;;;;;;;5044433;28;20056;-82
2023/09/09 03:44:14;;;;;;;8.65;7.63;;;;;;;;;;5070624;28;20056;-82
2023/09/09 03:46:50;;;;;;;16.90;8.07;;;;;;;;;;5056916;28;20095;-82
2023/09/09 03:49:20;;;;;;;14.57;7.75;;;;;;;;;;5054641;28;20049;-82
2023/09/09 03:51:47;;;;;;;9.30;8.25;;;;;;;;;;5060175;28;20053;-82
2023/09/09 04:05:52;;;;;;;9.15;8.10;;;;;;;;;;4999961;28;20429;-82
2023/09/09 04:08:22;;;;;;;10.10;7.88;;;;;;;;;;5057145;28;20405;-82
2023/09/09 04:10:52;;;;;;;12.63;9.55;;;;;;;;;;5058032;28;20422;-82
2023/09/09 04:13:37;;;;;;;7.85;6.80;;;;;;;;;;5041236;28;20494;-82
2023/09/09 04:16:18;;;;;;;12.05;8.13;;;;;;;;;;5040117;28;20498;-82
2023/09/09 04:18:56;;;;;;;10.50;9.40;;;;;;;;;;5056348;28;20056;-82
2023/09/09 04:21:31;;;;;;;12.23;8.60;;;;;;;;;;5057981;28;20058;-82
2023/09/09 04:24:30;;;;;;;;;;;;;;;;;;;;;
2023/09/09 04:38:33;;;;;;;7.00;6.30;;;;;;;;;;4910110;29;20068;-82
2023/09/09 04:41:41;;;;;;;9.40;7.82;;;;;;;;;;4976545;28;20105;-81
2023/09/09 04:44:42;;;;;;;7.85;7.05;;;;;;;;;;5064551;28;20060;-81
2023/09/09 04:47:43;;;;;;;9.77;7.68;;;;;;;;;;5045054;28;20056;-82
2023/09/09 04:50:36;;;;;;;9.75;8.38;;;;;;;;;;5039728;28;20053;-83
2023/09/09 04:53:05;;;;;;;12.70;9.00;;;;;;;;;;5068974;22;20056;-83
2023/09/09 04:55:38;;;;;;;10.18;8.27;;;;;;;;;;5025522;28;20431;-82
2023/09/09 04:58:07;;;;;;;8.40;6.45;;;;;;;;;;5003019;28;20061;-83
2023/09/09 05:00:34;;;;;;;7.90;7.10;;;;;;;;;;4989212;28;20044;-82
2023/09/09 05:03:01;;;;;;;8.00;7.22;;;;;;;;;;4979577;28;20054;-82
2023/09/09 05:05:31;;;;;;;8.65;7.72;;;;;;;;;;4976060;28;20381;-82
2023/09/09 05:07:59;;;;;;;8.73;7.82;;;;;;;;;;5007501;28;20042;-82
2023/09/09 05:10:27;;;;;;;10.13;8.35;;;;;;;;;;5006328;28;20057;-83
2023/09/09 05:12:56;;;;;;;12.10;8.73;;;;;;;;;;4991155;28;20045;-83
2023/09/09 05:15:26;;;;;;;8.57;7.70;;;;;;;;;;4989242;28;20065;-83
2023/09/09 05:17:53;;;;;;;8.95;7.38;;;;;;;;;;5001896;28;20050;-83
2023/09/09 05:20:21;;;;;;;9.07;8.25;;;;;;;;;;4990016;28;20054;-83
2023/09/09 05:22:48;;;;;;;8.68;7.22;;;;;;;;;;4988868;28;20064;-83
2023/09/09 05:25:16;;;;;;;8.40;6.75;;;;;;;;;;4988790;28;20485;-83
2023/09/09 05:27:43;;;;;;;9.00;6.40;;;;;;;;;;4991300;28;20049;-83
2023/09/09 05:30:15;;;;;;;15.55;8.30;;;;;;;;;;4993294;28;20057;-83
2023/09/09 05:32:43;;;;;;;7.68;6.20;;;;;;;;;;5009658;28;20408;-83
2023/09/09 05:35:12;;;;;;;8.55;7.53;;;;;;;;;;4993530;28;20522;-83
2023/09/09 05:37:42;;;;;;;11.77;8.95;;;;;;;;;;4993235;28;20041;-83
2023/09/09 05:40:10;;;;;;;10.60;8.07;;;;;;;;;;4993484;28;20049;-83
2023/09/09 05:42:41;;;;;;;11.15;8.45;;;;;;;;;;4993358;28;20064;-83
2023/09/09 05:45:11;;;;;;;9.23;7.03;;;;;;;;;;4991739;28;20055;-83
2023/09/09 05:47:44;;;;;;;20.23;6.53;;;;;;;;;;4990506;28;20046;-83
2023/09/09 05:50:12;;;;;;;11.20;7.60;;;;;;;;;;5002485;28;20053;-84
2023/09/09 05:52:41;;;;;;;7.38;6.50;;;;;;;;;;4991121;28;20065;-84
2023/09/09 05:55:12;;;;;;;7.68;5.70;;;;;;;;;;5007165;28;20520;-84
2023/09/09 05:57:39;;;;;;;9.85;6.38;;;;;;;;;;5007595;28;20037;-84
2023/09/09 06:00:09;;;;;;;6.97;5.40;;;;;;;;;;5004739;28;20049;-85
2023/09/09 06:02:51;;;;;;;7.88;6.25;;;;;;;;;;4990130;28;20053;-84
2023/09/09 06:05:20;;;;;;;7.65;6.25;;;;;;;;;;5004385;28;20057;-84
2023/09/09 06:07:52;;;;;;;11.02;6.35;;;;;;;;;;4993582;28;20052;-83
2023/09/09 06:10:22;;;;;;;8.23;6.07;;;;;;;;;;4989399;28;20499;-84
2023/09/09 06:12:49;;;;;;;8.02;6.10;;;;;;;;;;5009966;28;20050;-84
2023/09/09 06:15:17;;;;;;;7.07;6.38;;;;;;;;;;5005467;28;20511;-84
2023/09/09 06:17:49;;;;;;;7.25;5.35;;;;;;;;;;4993295;28;20061;-84
2023/09/09 06:20:18;;;;;;;7.72;5.93;;;;;;;;;;5008824;28;20049;-84
2023/09/09 06:22:48;;;;;;;7.07;5.82;;;;;;;;;;4993886;28;20080;-84
2023/09/09 06:25:16;;;;;;;7.53;5.55;;;;;;;;;;4984954;28;20073;-84
2023/09/09 06:27:46;;;;;;;7.00;6.25;;;;;;;;;;4987529;28;20042;-84
2023/09/09 06:30:16;;;;;;;7.25;6.07;;;;;;;;;;4991738;28;20057;-84
2023/09/09 06:32:43;;;;;;;6.55;5.40;;;;;;;;;;5010220;28;20045;-84
2023/09/09 06:35:11;;;;;;;8.90;6.00;;;;;;;;;;4993179;28;20060;-84
2023/09/09 06:37:40;;;;;;;10.43;5.53;;;;;;;;;;5008941;28;20491;-83
2023/09/09 06:40:11;;;;;;;7.15;6.45;;;;;;;;;;4991934;28;20057;-84
2023/09/09 06:42:40;;;;;;;7.10;5.85;;;;;;;;;;5003102;28;20046;-84
2023/09/09 06:45:10;;;;;;;6.10;5.45;;;;;;;;;;5006632;28;20050;-82
2023/09/09 06:47:39;;;;;;;7.68;6.95;;;;;;;;;;4993841;28;20049;-82
2023/09/09 06:50:07;;;;;;;10.80;6.07;;;;;;;;;;4988803;28;20058;-84
2023/09/09 06:52:38;;;;;;;6.85;6.18;;;;;;;;;;5006015;28;20514;-83
2023/09/09 06:55:09;;;;;;;10.65;6.15;;;;;;;;;;5024104;28;20072;-84
2023/09/09 06:57:36;;;;;;;5.80;5.22;;;;;;;;;;4995174;28;20427;-84
2023/09/09 07:00:08;;;;;;;6.70;6.10;;;;;;;;;;5020886;28;20045;-83
2023/09/09 07:02:35;;;;;;;5.82;5.32;;;;;;;;;;5013149;28;20061;-83
2023/09/09 07:05:05;;;;;;;6.60;5.32;;;;;;;;;;5014756;28;20053;-83
2023/09/09 07:07:33;;;;;;;7.97;5.90;;;;;;;;;;5013792;28;20045;-83
2023/09/09 07:10:03;;;;;;;6.53;5.63;;;;;;;;;;5028347;28;20045;-83
2023/09/09 07:12:34;;;;;;;6.82;6.22;;;;;;;;;;4993670;28;20534;-83
2023/09/09 07:15:05;;;;;;;7.03;6.00;;;;;;;;;;4996454;28;20608;-83
2023/09/09 07:17:34;;;;;;;6.70;6.10;;;;;;;;;;4992321;28;20053;-83
2023/09/09 07:20:01;;;;;;;6.20;4.70;;;;;;;;;;5029917;28;20041;-83
2023/09/09 07:22:31;;;;;;;6.45;5.55;;;;;;;;;;5011165;28;20061;-83
2023/09/09 07:24:58;;;;;;;7.22;6.45;;;;;;;;;;5006784;28;20057;-84
2023/09/09 07:27:27;;;;;;;6.97;6.28;;;;;;;;;;4997122;28;20072;-83
2023/09/09 07:29:59;;;;;;;6.80;6.10;;;;;;;;;;5031619;28;20514;-83
2023/09/09 07:32:26;;;;;;;7.22;6.55;;;;;;;;;;5014469;28;20065;-83
2023/09/09 07:34:56;;;;;;;7.88;5.93;;;;;;;;;;4993199;28;20088;-84
2023/09/09 07:37:23;;;;;;;7.22;5.65;;;;;;;;;;4989760;28;20060;-83
2023/09/09 07:39:51;;;;;;;7.65;6.95;;;;;;;;;;4992668;28;20060;-83
2023/09/09 07:42:19;;;;;;;10.15;6.00;;;;;;;;;;5006810;28;20045;-83
2023/09/09 07:44:46;;;;;;;6.13;5.53;;;;;;;;;;4997818;28;20072;-83
2023/09/09 07:47:17;;;;;;;6.82;5.47;;;;;;;;;;4995738;28;20061;-83
2023/09/09 07:49:47;;;;;;;5.88;5.32;;;;;;;;;;5014496;28;20048;-84
2023/09/09 07:52:17;;;;;;;7.65;6.25;;;;;;;;;;5011758;28;20049;-83
2023/09/09 07:54:46;;;;;;;6.50;6.00;;;;;;;;;;4996276;28;20072;-83
2023/09/09 07:57:16;;;;;;;6.72;6.07;;;;;;;;;;5011493;28;20064;-83
2023/09/09 07:59:43;;;;;;;7.43;6.57;;;;;;;;;;4996262;28;20510;-83
2023/09/09 08:02:12;;;;;;;6.13;5.55;;;;;;;;;;4999047;28;20062;-83
2023/09/09 08:04:41;;;;;;;8.40;6.00;;;;;;;;;;5027613;28;20048;-83
2023/09/09 08:07:08;;;;;;;6.55;5.90;;;;;;;;;;4995818;28;20046;-83
2023/09/09 08:09:37;;;;;;;5.80;4.88;;;;;;;;;;5024209;28;20057;-83
2023/09/09 08:12:07;;;;;;;6.68;5.28;;;;;;;;;;4997418;28;20049;-83
2023/09/09 08:14:37;;;;;;;9.73;6.10;;;;;;;;;;5011759;28;20084;-83
2023/09/09 08:17:07;;;;;;;6.32;5.72;;;;;;;;;;5011337;28;20068;-84
2023/09/09 08:19:40;;;;;;;6.97;6.22;;;;;;;;;;4999916;28;20052;-84
2023/09/09 08:22:08;;;;;;;11.32;6.13;;;;;;;;;;5013114;28;20041;-84
2023/09/09 08:24:35;;;;;;;6.22;5.63;;;;;;;;;;4997517;28;20384;-84
2023/09/09 08:27:03;;;;;;;6.10;5.53;;;;;;;;;;4994236;28;20049;-84
2023/09/09 08:29:32;;;;;;;5.38;4.85;;;;;;;;;;4998650;28;20542;-84
2023/09/09 08:32:02;;;;;;;6.22;5.63;;;;;;;;;;4999337;28;20056;-84
2023/09/09 08:34:34;;;;;;;6.40;5.72;;;;;;;;;;5030880;28;20510;-84
2023/09/09 08:37:05;;;;;;;6.25;5.65;;;;;;;;;;5011187;28;20037;-84
2023/09/09 08:39:37;;;;;;;5.75;5.25;;;;;;;;;;5013077;28;20056;-84
2023/09/09 08:42:14;;;;;;;6.95;6.10;;;;;;;;;;5011709;28;20056;-84
2023/09/09 08:44:49;;;;;;;12.68;7.35;;;;;;;;;;4995792;28;20057;-84
2023/09/09 08:47:18;;;;;;;8.73;5.97;;;;;;;;;;5014001;28;20054;-84
2023/09/09 08:49:49;;;;;;;7.15;6.32;;;;;;;;;;4997016;28;20049;-84
2023/09/09 08:52:25;;;;;;;7.18;6.47;;;;;;;;;;5013466;28;20068;-84
2023/09/09 08:54:53;;;;;;;6.60;5.63;;;;;;;;;;4995146;28;20046;-84
2023/09/09 08:57:20;;;;;;;8.93;6.95;;;;;;;;;;4997132;28;20049;-84
2023/09/09 08:59:48;;;;;;;6.82;6.22;;;;;;;;;;5008112;28;20049;-84
2023/09/09 09:02:15;;;;;;;7.95;6.10;;;;;;;;;;5009877;28;20052;-84
2023/09/09 09:04:46;;;;;;;7.80;6.00;;;;;;;;;;5025184;28;20060;-84
2023/09/09 09:07:16;;;;;;;7.72;5.55;;;;;;;;;;4996048;28;20518;-84
2023/09/09 09:09:45;;;;;;;7.40;6.05;;;;;;;;;;5006387;28;20049;-84
2023/09/09 09:12:17;;;;;;;7.85;6.35;;;;;;;;;;5012789;28;20057;-85
2023/09/09 09:14:48;;;;;;;7.25;5.85;;;;;;;;;;4996388;28;20050;-85
2023/09/09 09:17:23;;;;;;;6.45;5.75;;;;;;;;;;5011985;28;20057;-84
2023/09/09 09:19:51;;;;;;;9.65;5.70;;;;;;;;;;4998136;28;20049;-84
2023/09/09 09:22:21;;;;;;;8.80;6.60;;;;;;;;;;5008727;28;20050;-84
2023/09/09 09:24:51;;;;;;;6.65;5.93;;;;;;;;;;4995296;28;20045;-84
2023/09/09 09:27:21;;;;;;;11.10;6.72;;;;;;;;;;4993593;28;20505;-84
2023/09/09 09:29:52;;;;;;;8.93;7.05;;;;;;;;;;4996679;28;20095;-84
2023/09/09 09:32:21;;;;;;;7.20;6.60;;;;;;;;;;5011633;28;20479;-84
2023/09/09 09:34:50;;;;;;;8.10;7.13;;;;;;;;;;4995450;28;20048;-85
2023/09/09 09:37:20;;;;;;;9.75;7.30;;;;;;;;;;5011789;28;20443;-85
2023/09/09 09:39:52;;;;;;;8.20;7.13;;;;;;;;;;4990745;28;20053;-84
2023/09/09 09:42:35;;;;;;;7.15;6.45;;;;;;;;;;4994677;28;20071;-84
2023/09/09 09:45:11;;;;;;;6.57;6.07;;;;;;;;;;5012803;28;20036;-83
2023/09/09 09:47:42;;;;;;;7.10;6.50;;;;;;;;;;5011374;28;20451;-84
2023/09/09 09:50:18;;;;;;;6.25;5.65;;;;;;;;;;5011434;28;20045;-84
2023/09/09 09:53:01;;;;;;;7.20;6.30;;;;;;;;;;4995061;28;20049;-84
2023/09/09 09:55:41;;;;;;;7.97;6.38;;;;;;;;;;5011563;28;20045;-83
2023/09/09 09:58:35;;;;;;;10.98;7.32;;;;;;;;;;5023702;28;20053;-84
2023/09/09 10:01:06;;;;;;;7.25;5.82;;;;;;;;;;5012570;28;20526;-84
2023/09/09 10:03:43;;;;;;;11.48;7.20;;;;;;;;;;5011589;28;20410;-83
2023/09/09 10:06:12;;;;;;;7.70;7.00;;;;;;;;;;5025004;28;20052;-85
2023/09/09 10:08:47;;;;;;;11.00;6.20;;;;;;;;;;5020221;28;20045;-84
2023/09/09 10:11:18;;;;;;;8.50;7.70;;;;;;;;;;5005979;28;20626;-84
2023/09/09 10:13:49;;;;;;;8.55;6.30;;;;;;;;;;5006367;28;20414;-83
2023/09/09 10:16:20;;;;;;;5.97;5.47;;;;;;;;;;5028483;28;20056;-84
2023/09/09 10:18:47;;;;;;;9.20;6.97;;;;;;;;;;4994243;28;20054;-84
2023/09/09 10:21:16;;;;;;;11.38;6.75;;;;;;;;;;5007345;28;20063;-84
2023/09/09 10:23:46;;;;;;;6.82;6.13;;;;;;;;;;4995588;28;20060;-84
2023/09/09 10:26:18;;;;;;;6.63;6.10;;;;;;;;;;5027322;28;20056;-84
2023/09/09 10:28:47;;;;;;;6.55;5.95;;;;;;;;;;5010724;28;20041;-84
2023/09/09 10:31:17;;;;;;;8.63;7.70;;;;;;;;;;4991722;28;20053;-84
2023/09/09 10:33:49;;;;;;;;;;;;;;;;;;5011320;28;20037;-84
2023/09/09 10:36:19;;;;;;;6.72;6.07;;;;;;;;;;5009531;28;19921;-84
2023/09/09 10:38:49;;;;;;;7.32;6.47;;;;;;;;;;5024910;28;20045;-84
2023/09/09 10:41:20;;;;;;;6.45;5.85;;;;;;;;;;5025518;28;20403;-83
2023/09/09 10:43:47;;;;;;;7.90;6.45;;;;;;;;;;4998147;28;20061;-83
2023/09/09 10:46:16;;;;;;;7.63;6.93;;;;;;;;;;4988035;28;20496;-84
2023/09/09 10:48:46;;;;;;;8.55;6.40;;;;;;;;;;5010177;28;20060;-83
2023/09/09 10:51:15;;;;;;;7.70;7.00;;;;;;;;;;4994575;28;20061;-83
2023/09/09 10:53:45;;;;;;;7.15;6.45;;;;;;;;;;5048735;22;20041;-84
2023/09/09 10:56:29;;;;;;;6.75;6.25;;;;;;;;;;5024574;28;20057;-84
2023/09/09 10:58:56;;;;;;;6.68;6.05;;;;;;;;;;5014658;28;20053;-83
2023/09/09 11:01:24;;;;;;;7.13;6.50;;;;;;;;;;5012751;28;20054;-83
2023/09/09 11:03:52;;;;;;;6.82;6.22;;;;;;;;;;5018046;28;20061;-83
2023/09/09 11:06:20;;;;;;;7.03;6.35;;;;;;;;;;4994785;28;20480;-84
2023/09/09 11:08:49;;;;;;;9.00;6.32;;;;;;;;;;4995760;28;20046;-84
2023/09/09 11:11:17;;;;;;;14.43;7.47;;;;;;;;;;5011818;28;20518;-83
2023/09/09 11:13:50;;;;;;;6.60;6.00;;;;;;;;;;5004695;28;20037;-84
2023/09/09 11:16:31;;;;;;;;;;;;;;;;;;5030975;28;20060;-84
2023/09/09 11:19:06;;;;;;;6.50;5.90;;;;;;;;;;4991776;28;19921;-83
2023/09/09 11:24:16;;;;;;;8.73;6.40;;;;;;;;;;5018318;28;20045;-84
2023/09/09 11:26:51;;;;;;;6.22;5.38;;;;;;;;;;5014308;28;20061;-84
2023/09/09 11:29:22;;;;;;;7.38;6.78;;;;;;;;;;5028127;28;20056;-84
2023/09/09 11:31:50;;;;;;;5.82;5.30;;;;;;;;;;5013511;28;20053;-83
2023/09/09 11:34:17;;;;;;;9.65;6.47;;;;;;;;;;5031515;28;20045;-84
2023/09/09 11:36:47;;;;;;;6.57;5.78;;;;;;;;;;4997427;28;20048;-84
2023/09/09 11:39:15;;;;;;;7.03;6.32;;;;;;;;;;5024370;28;20041;-83
2023/09/09 11:41:45;;;;;;;6.78;5.57;;;;;;;;;;5021973;28;20049;-83
2023/09/09 11:44:12;;;;;;;6.63;5.80;;;;;;;;;;5015725;28;20049;-84
2023/09/09 11:46:42;;;;;;;5.97;5.32;;;;;;;;;;4989251;28;20050;-84
2023/09/09 11:49:12;;;;;;;6.95;6.30;;;;;;;;;;4991567;28;20049;-83
2023/09/09 11:51:41;;;;;;;7.13;5.93;;;;;;;;;;5010937;28;20049;-83
2023/09/09 11:54:11;;;;;;;6.05;5.45;;;;;;;;;;5009875;28;20490;-83
2023/09/09 11:56:38;;;;;;;7.05;6.18;;;;;;;;;;5010087;28;20045;-84
2023/09/09 11:59:09;;;;;;;6.72;5.93;;;;;;;;;;5008934;28;20053;-84
2023/09/09 12:01:42;;;;;;;6.25;5.65;;;;;;;;;;5010512;28;20057;-84
2023/09/09 12:04:10;;;;;;;6.38;5.78;;;;;;;;;;4997934;28;20499;-84
2023/09/09 12:06:38;;;;;;;6.65;5.53;;;;;;;;;;5023238;28;20057;-83
2023/09/09 12:09:07;;;;;;;6.43;5.88;;;;;;;;;;5009934;28;20050;-84
2023/09/09 12:11:35;;;;;;;8.25;6.50;;;;;;;;;;4988376;28;20049;-84
2023/09/09 12:14:03;;;;;;;6.57;5.97;;;;;;;;;;5010929;28;20050;-84
2023/09/09 12:16:31;;;;;;;7.00;5.70;;;;;;;;;;4997899;28;20419;-83
2023/09/09 12:19:00;;;;;;;7.43;5.80;;;;;;;;;;4993392;28;20053;-83
2023/09/09 12:21:29;;;;;;;8.80;6.07;;;;;;;;;;5008132;28;20415;-83
2023/09/09 12:23:58;;;;;;;7.57;5.78;;;;;;;;;;4994862;28;20071;-83
2023/09/09 12:26:26;;;;;;;6.75;5.43;;;;;;;;;;4994229;28;20057;-83
2023/09/09 12:29:08;;;;;;;6.97;6.38;;;;;;;;;;5008173;28;20050;-83
2023/09/09 12:31:50;;;;;;;7.00;6.40;;;;;;;;;;5011048;28;20371;-83
2023/09/09 12:34:20;;;;;;;8.25;6.28;;;;;;;;;;4995252;28;20054;-83
2023/09/09 12:36:48;;;;;;;6.65;6.05;;;;;;;;;;5007439;28;20037;-83
2023/09/09 12:39:25;;;;;;;10.73;6.47;;;;;;;;;;4997309;28;20053;-83
2023/09/09 12:42:03;;;;;;;6.57;5.93;;;;;;;;;;4989516;28;20049;-83
2023/09/09 12:44:32;;;;;;;7.75;6.82;;;;;;;;;;4993556;28;20431;-83
2023/09/09 12:46:59;;;;;;;7.30;5.38;;;;;;;;;;4992483;28;20045;-83
2023/09/09 12:49:29;;;;;;;6.80;6.10;;;;;;;;;;5010365;28;20061;-83
2023/09/09 12:51:56;;;;;;;6.95;6.25;;;;;;;;;;4987942;28;20049;-83
2023/09/09 12:54:23;;;;;;;7.95;6.22;;;;;;;;;;5027409;28;20049;-83
2023/09/09 12:56:51;;;;;;;6.57;5.97;;;;;;;;;;5011881;28;20289;-83
2023/09/09 12:59:18;;;;;;;6.75;5.78;;;;;;;;;;4990413;28;20050;-83
2023/09/09 13:01:45;;;;;;;6.43;5.82;;;;;;;;;;4995856;28;20526;-84
2023/09/09 13:04:13;;;;;;;6.00;5.35;;;;;;;;;;4997100;28;20052;-84
2023/09/09 13:06:42;;;;;;;6.65;4.93;;;;;;;;;;5009267;28;20704;-84
2023/09/09 13:09:09;;;;;;;6.03;5.15;;;;;;;;;;5011472;28;20056;-83
2023/09/09 13:11:36;;;;;;;6.22;5.13;;;;;;;;;;4990751;28;20408;-83
2023/09/09 13:14:04;;;;;;;6.07;5.47;;;;;;;;;;5012261;28;20049;-84
2023/09/09 13:16:31;;;;;;;6.05;4.60;;;;;;;;;;5011748;28;20053;-84
2023/09/09 13:18:58;;;;;;;8.40;3.78;;;;;;;;;;4993784;28;20049;-84
2023/09/09 13:21:26;;;;;;;5.20;4.47;;;;;;;;;;5008854;28;20415;-83
2023/09/09 13:23:55;;;;;;;5.35;4.82;;;;;;;;;;4995680;28;20045;-83
2023/09/09 13:26:22;;;;;;;5.47;4.22;;;;;;;;;;5026338;28;20047;-83
2023/09/09 13:28:49;;;;;;;5.80;4.45;;;;;;;;;;4992454;28;20415;-83
2023/09/09 13:31:17;;;;;;;4.75;4.35;;;;;;;;;;5005324;28;20061;-83
2023/09/09 13:33:45;;;;;;;5.10;4.60;;;;;;;;;;4991522;28;20050;-83
2023/09/09 13:36:12;;;;;;;8.40;4.30;;;;;;;;;;5026015;28;20045;-83
2023/09/09 13:38:39;;;;;;;6.43;4.88;;;;;;;;;;5012701;28;20049;-83
2023/09/09 13:41:08;;;;;;;5.28;4.10;;;;;;;;;;4986380;28;20422;-83
2023/09/09 13:43:35;;;;;;;5.07;4.57;;;;;;;;;;5018505;28;20049;-83
2023/09/09 13:46:03;;;;;;;6.82;4.20;;;;;;;;;;4993558;28;20056;-83
2023/09/09 13:48:30;;;;;;;6.07;4.93;;;;;;;;;;4993271;28;20053;-83
2023/09/09 13:50:57;;;;;;;4.15;3.75;;;;;;;;;;5008902;28;20053;-83
2023/09/09 13:53:25;;;;;;;5.35;4.85;;;;;;;;;;5000424;28;20065;-84
2023/09/09 13:55:52;;;;;;;4.78;4.38;;;;;;;;;;4985538;28;20407;-84
2023/09/09 13:58:21;;;;;;;5.47;4.97;;;;;;;;;;5024980;28;20052;-83
2023/09/09 14:00:50;;;;;;;4.90;4.50;;;;;;;;;;4993072;28;20128;-83
2023/09/09 14:03:17;;;;;;;6.97;4.75;;;;;;;;;;5004236;28;20054;-84
2023/09/09 14:05:45;;;;;;;5.35;3.95;;;;;;;;;;5005690;28;20415;-83
2023/09/09 14:08:12;;;;;;;5.57;4.25;;;;;;;;;;5008130;28;20514;-83
2023/09/09 14:10:39;;;;;;;3.70;3.30;;;;;;;;;;5005821;28;20057;-83
2023/09/09 14:13:07;;;;;;;5.78;3.75;;;;;;;;;;5009024;28;20045;-85
2023/09/09 14:15:40;;;;;;;5.38;4.88;;;;;;;;;;5023884;28;20388;-83
2023/09/09 14:18:07;;;;;;;6.03;3.88;;;;;;;;;;5026721;28;20037;-83
2023/09/09 14:20:35;;;;;;;4.63;4.20;;;;;;;;;;5020693;28;20529;-84
2023/09/09 14:23:02;;;;;;;6.53;5.15;;;;;;;;;;5023633;28;20181;-83
2023/09/09 14:25:30;;;;;;;6.75;5.45;;;;;;;;;;5004023;28;20072;-83
2023/09/09 14:27:57;;;;;;;6.65;5.50;;;;;;;;;;5020040;28;20048;-83
2023/09/09 14:30:24;;;;;;;5.72;5.13;;;;;;;;;;5023406;28;20049;-83
2023/09/09 14:32:56;;;;;;;6.68;4.88;;;;;;;;;;5024275;28;20042;-83
2023/09/09 14:42:27;;;;;;;5.68;4.63;;;;;;;;;;6119814;22;20056;-84
2023/09/09 15:02:54;;;;;;;4.95;4.50;;;;;;;;;;5784967;22;20509;-92
2023/09/09 15:05:21;;;;;;;11.02;4.53;;;;;;;;;;5064618;28;20269;-92
2023/09/09 15:07:49;;;;;;;9.57;3.92;;;;;;;;;;5078353;28;20059;-92
2023/09/09 15:10:17;;;;;;;7.03;4.10;;;;;;;;;;5056812;28;20044;-92
2023/09/09 15:12:47;;;;;;;4.80;4.13;;;;;;;;;;5053905;28;20052;-93
2023/09/09 15:15:15;;;;;;;4.13;3.70;;;;;;;;;;5047342;28;20409;-93
2023/09/09 15:17:46;;;;;;;9.95;4.82;;;;;;;;;;5037397;28;20421;-92
2023/09/09 15:20:16;;;;;;;6.28;4.88;;;;;;;;;;5068707;28;20064;-93
2023/09/09 15:22:45;;;;;;;6.50;4.88;;;;;;;;;;5074350;28;20052;-92
2023/09/09 15:25:15;;;;;;;6.75;5.43;;;;;;;;;;5050891;28;20044;-92
2023/09/09 15:27:44;;;;;;;4.80;4.03;;;;;;;;;;5040172;28;20049;-94
2023/09/09 15:30:16;;;;;;;7.20;4.53;;;;;;;;;;5056308;28;20040;-92
2023/09/09 15:32:46;;;;;;;5.20;4.70;;;;;;;;;;5073143;28;20527;-91
2023/09/09 15:35:19;;;;;;;5.57;4.63;;;;;;;;;;5038730;28;20054;-93
2023/09/09 15:37:46;;;;;;;5.07;4.40;;;;;;;;;;5074166;28;20044;-93
2023/09/09 15:40:19;;;;;;;5.38;4.07;;;;;;;;;;5020309;28;20044;-92
2023/09/09 15:42:46;;;;;;;7.30;4.88;;;;;;;;;;5046770;28;20041;-92
2023/09/09 15:45:14;;;;;;;4.38;3.97;;;;;;;;;;5073582;28;20047;-92
2023/09/09 15:47:42;;;;;;;4.68;4.28;;;;;;;;;;5031473;28;20532;-94
2023/09/09 15:50:12;;;;;;;4.45;4.05;;;;;;;;;;5050904;28;20056;-93